sensor_id;sensor_type;location;lat;lon;timestamp;pressure;altitude;pressure_sealevel;temperature;humidity
65754;BME280;69207;47.502;18.940;2023-06-14T00:00:32;97802.47;;;13.62;72.73
65754;BME280;69207;47.502;18.940;2023-06-14T00:01:37;97803.19;;;13.62;72.87
65754;BME280;69207;47.502;18.940;2023-06-14T00:02:40;97796.84;;;13.60;72.92
65754;BME280;69207;47.502;18.940;2023-06-14T00:03:44;97806.34;;;13.57;73.42
65754;BME280;69207;47.502;18.940;2023-06-14T00:04:47;97802.16;;;13.56;73.62
65754;BME280;69207;47.502;18.940;2023-06-14T00:05:50;97799.41;;;13.56;73.80
65754;BME280;69207;47.502;18.940;2023-06-14T00:06:53;97801.75;;;13.61;73.96
65754;BME280;69207;47.502;18.940;2023-06-14T00:07:56;97802.97;;;13.58;74.06
65754;BME280;69207;47.502;18.940;2023-06-14T00:08:58;97799.19;;;13.65;73.90
65754;BME280;69207;47.502;18.940;2023-06-14T00:10:03;97805.25;;;13.62;74.05
65754;BME280;69207;47.502;18.940;2023-06-14T00:11:07;97796.75;;;13.58;74.22
65754;BME280;69207;47.502;18.940;2023-06-14T00:12:09;97796.44;;;13.52;74.48
65754;BME280;69207;47.502;18.940;2023-06-14T00:13:12;97795.81;;;13.53;74.62
65754;BME280;69207;47.502;18.940;2023-06-14T00:14:15;97800.00;;;13.54;74.58
65754;BME280;69207;47.502;18.940;2023-06-14T00:15:17;97801.94;;;13.52;74.89
65754;BME280;69207;47.502;18.940;2023-06-14T00:16:20;97799.09;;;13.50;75.04
65754;BME280;69207;47.502;18.940;2023-06-14T00:17:23;97794.69;;;13.44;75.34
65754;BME280;69207;47.502;18.940;2023-06-14T00:18:27;97796.53;;;13.54;75.36
65754;BME280;69207;47.502;18.940;2023-06-14T00:19:32;97793.75;;;13.54;75.47
65754;BME280;69207;47.502;18.940;2023-06-14T00:20:35;97797.13;;;13.52;75.70
65754;BME280;69207;47.502;18.940;2023-06-14T00:21:38;97796.34;;;13.50;75.79
65754;BME280;69207;47.502;18.940;2023-06-14T00:22:41;97796.00;;;13.43;76.10
65754;BME280;69207;47.502;18.940;2023-06-14T00:23:43;97798.75;;;13.43;76.40
65754;BME280;69207;47.502;18.940;2023-06-14T00:24:47;97798.75;;;13.43;76.65
65754;BME280;69207;47.502;18.940;2023-06-14T00:25:49;97801.62;;;13.45;77.08
65754;BME280;69207;47.502;18.940;2023-06-14T00:26:52;97791.31;;;13.46;77.28
65754;BME280;69207;47.502;18.940;2023-06-14T00:27:56;97809.91;;;13.45;77.57
65754;BME280;69207;47.502;18.940;2023-06-14T00:28:59;97804.78;;;13.40;77.98
65754;BME280;69207;47.502;18.940;2023-06-14T00:30:01;97807.31;;;13.36;78.24
65754;BME280;69207;47.502;18.940;2023-06-14T00:31:04;97808.56;;;13.33;78.57
65754;BME280;69207;47.502;18.940;2023-06-14T00:32:08;97802.91;;;13.31;78.92
65754;BME280;69207;47.502;18.940;2023-06-14T00:33:11;97806.37;;;13.31;79.09
65754;BME280;69207;47.502;18.940;2023-06-14T00:34:14;97804.84;;;13.28;79.25
65754;BME280;69207;47.502;18.940;2023-06-14T00:35:16;97803.44;;;13.27;79.50
65754;BME280;69207;47.502;18.940;2023-06-14T00:36:19;97804.97;;;13.30;79.62
65754;BME280;69207;47.502;18.940;2023-06-14T00:37:22;97811.19;;;13.31;79.60
65754;BME280;69207;47.502;18.940;2023-06-14T00:38:25;97805.56;;;13.29;79.66
65754;BME280;69207;47.502;18.940;2023-06-14T00:39:27;97802.19;;;13.30;79.62
65754;BME280;69207;47.502;18.940;2023-06-14T00:40:30;97806.78;;;13.26;79.87
65754;BME280;69207;47.502;18.940;2023-06-14T00:41:33;97805.84;;;13.21;80.05
65754;BME280;69207;47.502;18.940;2023-06-14T00:42:36;97812.56;;;13.18;80.37
65754;BME280;69207;47.502;18.940;2023-06-14T00:43:38;97812.66;;;13.20;80.37
65754;BME280;69207;47.502;18.940;2023-06-14T00:44:41;97811.13;;;13.17;80.56
65754;BME280;69207;47.502;18.940;2023-06-14T00:45:44;97816.66;;;13.17;80.65
65754;BME280;69207;47.502;18.940;2023-06-14T00:46:47;97812.56;;;13.18;80.83
65754;BME280;69207;47.502;18.940;2023-06-14T00:47:51;97813.87;;;13.17;80.88
65754;BME280;69207;47.502;18.940;2023-06-14T00:48:58;97809.34;;;13.10;81.34
65754;BME280;69207;47.502;18.940;2023-06-14T00:50:06;97816.91;;;13.09;81.60
65754;BME280;69207;47.502;18.940;2023-06-14T00:51:09;97812.72;;;13.08;81.55
65754;BME280;69207;47.502;18.940;2023-06-14T00:52:12;97812.34;;;13.14;81.34
65754;BME280;69207;47.502;18.940;2023-06-14T00:53:17;97809.72;;;13.16;81.36
65754;BME280;69207;47.502;18.940;2023-06-14T00:54:27;97810.06;;;13.22;81.17
65754;BME280;69207;47.502;18.940;2023-06-14T00:55:30;97806.44;;;13.19;81.32
65754;BME280;69207;47.502;18.940;2023-06-14T00:56:35;97808.38;;;13.17;81.56
65754;BME280;69207;47.502;18.940;2023-06-14T00:57:38;97813.87;;;13.17;81.66
65754;BME280;69207;47.502;18.940;2023-06-14T00:58:43;97809.72;;;13.16;81.83
65754;BME280;69207;47.502;18.940;2023-06-14T00:59:47;97810.91;;;13.13;82.21
65754;BME280;69207;47.502;18.940;2023-06-14T01:00:50;97808.75;;;13.11;82.24
65754;BME280;69207;47.502;18.940;2023-06-14T01:01:53;97813.06;;;13.14;82.16
65754;BME280;69207;47.502;18.940;2023-06-14T01:02:56;97806.44;;;13.19;82.09
65754;BME280;69207;47.502;18.940;2023-06-14T01:04:00;97799.25;;;13.14;82.04
65754;BME280;69207;47.502;18.940;2023-06-14T01:05:06;97806.81;;;13.14;82.03
65754;BME280;69207;47.502;18.940;2023-06-14T01:06:41;97804.28;;;13.18;81.90
65754;BME280;69207;47.502;18.940;2023-06-14T01:08:11;97801.44;;;13.16;82.03
65754;BME280;69207;47.502;18.940;2023-06-14T01:12:24;97794.84;;;13.09;82.82
65754;BME280;69207;47.502;18.940;2023-06-14T01:13:36;97802.69;;;13.01;83.23
65754;BME280;69207;47.502;18.940;2023-06-14T01:14:41;97799.72;;;12.97;83.76
65754;BME280;69207;47.502;18.940;2023-06-14T01:15:45;97807.88;;;12.95;83.83
65754;BME280;69207;47.502;18.940;2023-06-14T01:16:49;97802.12;;;12.91;83.95
65754;BME280;69207;47.502;18.940;2023-06-14T01:17:56;97804.56;;;12.85;84.17
65754;BME280;69207;47.502;18.940;2023-06-14T01:19:06;97801.19;;;12.86;84.11
65754;BME280;69207;47.502;18.940;2023-06-14T01:20:15;97802.41;;;12.83;84.19
65754;BME280;69207;47.502;18.940;2023-06-14T01:21:23;97801.47;;;12.79;84.27
65754;BME280;69207;47.502;18.940;2023-06-14T01:22:28;97803.28;;;12.74;84.39
65754;BME280;69207;47.502;18.940;2023-06-14T01:23:31;97803.91;;;12.73;84.40
65754;BME280;69207;47.502;18.940;2023-06-14T01:24:35;97804.47;;;12.71;84.51
65754;BME280;69207;47.502;18.940;2023-06-14T01:25:38;97793.25;;;12.67;84.37
65754;BME280;69207;47.502;18.940;2023-06-14T01:26:41;97809.31;;;12.59;84.95
65754;BME280;69207;47.502;18.940;2023-06-14T01:28:07;97806.37;;;12.55;85.09
65754;BME280;69207;47.502;18.940;2023-06-14T01:29:14;97807.56;;;12.52;85.06
65754;BME280;69207;47.502;18.940;2023-06-14T01:30:23;97802.53;;;12.48;84.99
65754;BME280;69207;47.502;18.940;2023-06-14T01:31:28;97807.22;;;12.46;85.22
65754;BME280;69207;47.502;18.940;2023-06-14T01:32:32;97805.31;;;12.36;85.71
65754;BME280;69207;47.502;18.940;2023-06-14T01:33:35;97804.00;;;12.26;86.49
65754;BME280;69207;47.502;18.940;2023-06-14T01:34:39;97800.31;;;12.21;86.50
65754;BME280;69207;47.502;18.940;2023-06-14T01:35:46;97805.47;;;12.15;86.89
65754;BME280;69207;47.502;18.940;2023-06-14T01:36:49;97795.91;;;12.16;86.65
65754;BME280;69207;47.502;18.940;2023-06-14T01:37:53;97802.59;;;12.13;86.92
65754;BME280;69207;47.502;18.940;2023-06-14T01:38:56;97810.03;;;12.10;86.78
65754;BME280;69207;47.502;18.940;2023-06-14T01:39:59;97807.53;;;12.03;86.95
65754;BME280;69207;47.502;18.940;2023-06-14T01:41:02;97802.97;;;11.96;87.45
65754;BME280;69207;47.502;18.940;2023-06-14T01:42:06;97810.66;;;11.85;88.15
65754;BME280;69207;47.502;18.940;2023-06-14T01:43:11;97811.13;;;11.82;88.53
65754;BME280;69207;47.502;18.940;2023-06-14T01:44:17;97802.72;;;11.80;88.63
65754;BME280;69207;47.502;18.940;2023-06-14T01:45:21;97809.53;;;11.79;88.61
65754;BME280;69207;47.502;18.940;2023-06-14T01:46:25;97807.88;;;11.74;89.08
65754;BME280;69207;47.502;18.940;2023-06-14T01:47:29;97800.78;;;11.71;89.40
65754;BME280;69207;47.502;18.940;2023-06-14T01:48:32;97808.34;;;11.70;89.49
65754;BME280;69207;47.502;18.940;2023-06-14T01:49:35;97813.97;;;11.72;89.08
65754;BME280;69207;47.502;18.940;2023-06-14T01:50:38;97799.72;;;11.64;90.13
65754;BME280;69207;47.502;18.940;2023-06-14T01:51:40;97819.22;;;11.56;91.63
65754;BME280;69207;47.502;18.940;2023-06-14T01:52:44;97812.87;;;11.54;91.78
65754;BME280;69207;47.502;18.940;2023-06-14T01:53:47;97819.56;;;11.51;91.79
65754;BME280;69207;47.502;18.940;2023-06-14T01:54:51;97819.31;;;11.47;91.98
65754;BME280;69207;47.502;18.940;2023-06-14T01:55:53;97813.09;;;11.46;92.53
65754;BME280;69207;47.502;18.940;2023-06-14T01:56:57;97816.56;;;11.47;92.28
65754;BME280;69207;47.502;18.940;2023-06-14T01:58:00;97814.53;;;11.47;92.18
65754;BME280;69207;47.502;18.940;2023-06-14T01:59:02;97819.31;;;11.47;92.29
65754;BME280;69207;47.502;18.940;2023-06-14T02:00:06;97820.03;;;11.47;92.38
65754;BME280;69207;47.502;18.940;2023-06-14T02:01:15;97812.38;;;11.46;92.79
65754;BME280;69207;47.502;18.940;2023-06-14T02:02:18;97817.19;;;11.45;92.93
65754;BME280;69207;47.502;18.940;2023-06-14T02:03:21;97821.34;;;11.46;92.80
65754;BME280;69207;47.502;18.940;2023-06-14T02:04:25;97819.31;;;11.47;92.65
65754;BME280;69207;47.502;18.940;2023-06-14T02:05:28;97823.75;;;11.52;92.11
65754;BME280;69207;47.502;18.940;2023-06-14T02:06:31;97821.97;;;11.45;92.42
65754;BME280;69207;47.502;18.940;2023-06-14T02:07:34;97824.81;;;11.47;92.42
65754;BME280;69207;47.502;18.940;2023-06-14T02:08:37;97818.97;;;11.41;92.41
65754;BME280;69207;47.502;18.940;2023-06-14T02:09:40;97816.31;;;11.43;92.91
65754;BME280;69207;47.502;18.940;2023-06-14T02:10:43;97824.34;;;11.39;92.87
65754;BME280;69207;47.502;18.940;2023-06-14T02:11:46;97832.19;;;11.32;93.33
65754;BME280;69207;47.502;18.940;2023-06-14T02:12:49;97826.84;;;11.34;93.27
65754;BME280;69207;47.502;18.940;2023-06-14T02:13:52;97830.06;;;11.31;93.51
65754;BME280;69207;47.502;18.940;2023-06-14T02:14:55;97831.38;;;11.30;93.56
65754;BME280;69207;47.502;18.940;2023-06-14T02:15:58;97831.97;;;11.28;93.81
65754;BME280;69207;47.502;18.940;2023-06-14T02:17:02;97834.72;;;11.28;93.62
65754;BME280;69207;47.502;18.940;2023-06-14T02:18:05;97830.53;;;11.27;93.84
65754;BME280;69207;47.502;18.940;2023-06-14T02:19:08;97835.19;;;11.25;93.86
65754;BME280;69207;47.502;18.940;2023-06-14T02:20:11;97833.62;;;11.22;94.14
65754;BME280;69207;47.502;18.940;2023-06-14T02:21:14;97828.72;;;11.20;94.27
65754;BME280;69207;47.502;18.940;2023-06-14T02:22:17;97835.78;;;11.23;94.15
65754;BME280;69207;47.502;18.940;2023-06-14T02:23:20;97834.91;;;11.21;94.27
65754;BME280;69207;47.502;18.940;2023-06-14T02:24:23;97825.72;;;11.16;94.51
65754;BME280;69207;47.502;18.940;2023-06-14T02:25:26;97828.22;;;11.12;94.97
65754;BME280;69207;47.502;18.940;2023-06-14T02:26:30;97833.72;;;11.12;95.08
65754;BME280;69207;47.502;18.940;2023-06-14T02:27:35;97831.94;;;11.17;94.75
65754;BME280;69207;47.502;18.940;2023-06-14T02:28:38;97829.66;;;11.13;95.06
65754;BME280;69207;47.502;18.940;2023-06-14T02:29:40;97825.72;;;11.16;94.74
65754;BME280;69207;47.502;18.940;2023-06-14T02:30:43;97824.75;;;11.12;94.79
65754;BME280;69207;47.502;18.940;2023-06-14T02:31:46;97823.56;;;11.15;94.50
65754;BME280;69207;47.502;18.940;2023-06-14T02:32:51;97826.66;;;11.09;94.77
65754;BME280;69207;47.502;18.940;2023-06-14T02:33:56;97829.28;;;11.07;95.09
65754;BME280;69207;47.502;18.940;2023-06-14T02:34:58;97827.59;;;11.02;95.58
65754;BME280;69207;47.502;18.940;2023-06-14T02:36:02;97824.13;;;11.01;96.26
65754;BME280;69207;47.502;18.940;2023-06-14T02:37:05;97828.56;;;11.06;96.29
65754;BME280;69207;47.502;18.940;2023-06-14T02:38:08;97825.31;;;11.10;96.75
65754;BME280;69207;47.502;18.940;2023-06-14T02:39:11;97826.19;;;11.13;97.23
65754;BME280;69207;47.502;18.940;2023-06-14T02:40:14;97821.44;;;11.25;97.12
65754;BME280;69207;47.502;18.940;2023-06-14T02:41:17;97815.69;;;11.32;97.41
65754;BME280;69207;47.502;18.940;2023-06-14T02:42:19;97819.06;;;11.43;98.08
65754;BME280;69207;47.502;18.940;2023-06-14T02:43:22;97821.09;;;11.42;98.71
65754;BME280;69207;47.502;18.940;2023-06-14T02:44:26;97825.78;;;11.51;98.95
65754;BME280;69207;47.502;18.940;2023-06-14T02:45:30;97819.34;;;11.58;98.84
65754;BME280;69207;47.502;18.940;2023-06-14T02:46:32;97816.47;;;11.68;98.56
65754;BME280;69207;47.502;18.940;2023-06-14T02:47:35;97819.84;;;11.67;98.78
65754;BME280;69207;47.502;18.940;2023-06-14T02:48:38;97812.28;;;11.67;99.06
65754;BME280;69207;47.502;18.940;2023-06-14T02:49:41;97807.97;;;11.64;99.29
65754;BME280;69207;47.502;18.940;2023-06-14T02:50:43;97812.16;;;11.65;99.44
65754;BME280;69207;47.502;18.940;2023-06-14T02:51:47;97812.87;;;11.66;99.49
65754;BME280;69207;47.502;18.940;2023-06-14T02:52:49;97809.41;;;11.65;99.49
65754;BME280;69207;47.502;18.940;2023-06-14T02:53:52;97816.13;;;11.74;99.00
65754;BME280;69207;47.502;18.940;2023-06-14T02:54:55;97815.41;;;11.73;98.86
65754;BME280;69207;47.502;18.940;2023-06-14T02:55:57;97813.37;;;11.74;98.89
65754;BME280;69207;47.502;18.940;2023-06-14T02:57:01;97806.53;;;11.75;98.99
65754;BME280;69207;47.502;18.940;2023-06-14T02:58:04;97809.56;;;11.91;98.56
65754;BME280;69207;47.502;18.940;2023-06-14T02:59:07;97812.56;;;11.95;98.02
65754;BME280;69207;47.502;18.940;2023-06-14T03:00:11;97805.13;;;11.97;98.12
65754;BME280;69207;47.502;18.940;2023-06-14T03:01:16;97807.88;;;11.97;98.24
65754;BME280;69207;47.502;18.940;2023-06-14T03:02:20;97816.03;;;12.07;98.02
65754;BME280;69207;47.502;18.940;2023-06-14T03:03:23;97817.22;;;12.04;97.96
65754;BME280;69207;47.502;18.940;2023-06-14T03:04:27;97814.25;;;12.00;98.18
65754;BME280;69207;47.502;18.940;2023-06-14T03:05:31;97816.13;;;12.09;97.97
65754;BME280;69207;47.502;18.940;2023-06-14T03:06:35;97813.37;;;12.09;98.06
65754;BME280;69207;47.502;18.940;2023-06-14T03:07:39;97812.06;;;12.10;98.03
65754;BME280;69207;47.502;18.940;2023-06-14T03:08:43;97811.94;;;12.08;98.20
65754;BME280;69207;47.502;18.940;2023-06-14T03:09:46;97816.00;;;12.19;97.81
65754;BME280;69207;47.502;18.940;2023-06-14T03:10:49;97816.84;;;12.21;97.67
65754;BME280;69207;47.502;18.940;2023-06-14T03:11:52;97815.28;;;12.18;97.71
65754;BME280;69207;47.502;18.940;2023-06-14T03:12:55;97817.69;;;12.24;97.55
65754;BME280;69207;47.502;18.940;2023-06-14T03:13:57;97812.16;;;12.24;97.64
65754;BME280;69207;47.502;18.940;2023-06-14T03:15:00;97816.72;;;12.19;97.94
65754;BME280;69207;47.502;18.940;2023-06-14T03:16:07;97810.38;;;12.17;98.28
65754;BME280;69207;47.502;18.940;2023-06-14T03:17:09;97812.78;;;12.22;98.42
65754;BME280;69207;47.502;18.940;2023-06-14T03:18:13;97809.88;;;12.32;97.74
65754;BME280;69207;47.502;18.940;2023-06-14T03:19:17;97825.31;;;12.37;97.36
65754;BME280;69207;47.502;18.940;2023-06-14T03:20:20;97816.94;;;12.35;97.48
65754;BME280;69207;47.502;18.940;2023-06-14T03:21:22;97821.03;;;12.34;97.56
65754;BME280;69207;47.502;18.940;2023-06-14T03:22:25;97809.16;;;12.31;97.69
65754;BME280;69207;47.502;18.940;2023-06-14T03:23:28;97815.88;;;12.28;98.03
65754;BME280;69207;47.502;18.940;2023-06-14T03:24:31;97819.81;;;12.25;98.25
65754;BME280;69207;47.502;18.940;2023-06-14T03:25:39;97815.03;;;12.26;98.35
65754;BME280;69207;47.502;18.940;2023-06-14T03:26:44;97814.31;;;12.25;98.51
65754;BME280;69207;47.502;18.940;2023-06-14T03:27:47;97820.06;;;12.29;98.32
65754;BME280;69207;47.502;18.940;2023-06-14T03:28:50;97814.78;;;12.33;98.03
65754;BME280;69207;47.502;18.940;2023-06-14T03:29:53;97818.00;;;12.41;97.69
65754;BME280;69207;47.502;18.940;2023-06-14T03:30:55;97815.97;;;12.42;97.44
65754;BME280;69207;47.502;18.940;2023-06-14T03:32:00;97820.28;;;12.45;97.35
65754;BME280;69207;47.502;18.940;2023-06-14T03:33:03;97817.59;;;12.59;96.22
65754;BME280;69207;47.502;18.940;2023-06-14T03:34:07;97820.25;;;12.57;95.98
65754;BME280;69207;47.502;18.940;2023-06-14T03:35:10;97825.75;;;12.57;96.07
65754;BME280;69207;47.502;18.940;2023-06-14T03:36:19;97827.28;;;12.60;95.78
65754;BME280;69207;47.502;18.940;2023-06-14T03:37:22;97831.72;;;12.65;95.40
65754;BME280;69207;47.502;18.940;2023-06-14T03:38:25;97830.03;;;12.60;95.47
65754;BME280;69207;47.502;18.940;2023-06-14T03:39:28;97825.84;;;12.59;95.50
65754;BME280;69207;47.502;18.940;2023-06-14T03:40:30;97828.50;;;12.57;95.65
65754;BME280;69207;47.502;18.940;2023-06-14T03:41:33;97835.09;;;12.52;95.98
65754;BME280;69207;47.502;18.940;2023-06-14T03:42:36;97836.19;;;12.47;96.31
65754;BME280;69207;47.502;18.940;2023-06-14T03:43:39;97830.44;;;12.42;96.75
65754;BME280;69207;47.502;18.940;2023-06-14T03:44:42;97837.37;;;12.43;96.93
65754;BME280;69207;47.502;18.940;2023-06-14T03:45:44;97829.34;;;12.48;96.42
65754;BME280;69207;47.502;18.940;2023-06-14T03:46:47;97841.47;;;12.42;96.59
65754;BME280;69207;47.502;18.940;2023-06-14T03:47:50;97836.56;;;12.41;96.99
65754;BME280;69207;47.502;18.940;2023-06-14T03:48:53;97832.62;;;12.44;96.82
65754;BME280;69207;47.502;18.940;2023-06-14T03:49:55;97842.06;;;12.41;96.91
65754;BME280;69207;47.502;18.940;2023-06-14T03:50:58;97833.19;;;12.42;96.81
65754;BME280;69207;47.502;18.940;2023-06-14T03:52:03;97842.69;;;12.39;96.88
65754;BME280;69207;47.502;18.940;2023-06-14T03:53:06;97841.25;;;12.38;97.04
65754;BME280;69207;47.502;18.940;2023-06-14T03:54:09;97835.13;;;12.40;97.16
65754;BME280;69207;47.502;18.940;2023-06-14T03:55:32;97837.28;;;12.41;97.04
65754;BME280;69207;47.502;18.940;2023-06-14T03:56:38;97832.72;;;12.46;96.90
65754;BME280;69207;47.502;18.940;2023-06-14T03:57:41;97836.81;;;12.45;96.86
65754;BME280;69207;47.502;18.940;2023-06-14T03:58:44;97829.50;;;12.50;96.77
65754;BME280;69207;47.502;18.940;2023-06-14T03:59:47;97830.69;;;12.47;96.91
65754;BME280;69207;47.502;18.940;2023-06-14T04:00:49;97841.44;;;12.54;96.65
65754;BME280;69207;47.502;18.940;2023-06-14T04:01:53;97835.81;;;12.52;96.54
65754;BME280;69207;47.502;18.940;2023-06-14T04:02:56;97836.31;;;12.49;96.96
65754;BME280;69207;47.502;18.940;2023-06-14T04:03:59;97847.31;;;12.49;97.22
65754;BME280;69207;47.502;18.940;2023-06-14T04:05:03;97843.28;;;12.50;97.25
65754;BME280;69207;47.502;18.940;2023-06-14T04:06:06;97841.94;;;12.51;97.17
65754;BME280;69207;47.502;18.940;2023-06-14T04:07:11;97847.09;;;12.56;97.17
65754;BME280;69207;47.502;18.940;2023-06-14T04:08:14;97842.28;;;12.57;96.69
65754;BME280;69207;47.502;18.940;2023-06-14T04:09:17;97845.66;;;12.55;96.77
65754;BME280;69207;47.502;18.940;2023-06-14T04:10:21;97842.38;;;12.59;96.77
65754;BME280;69207;47.502;18.940;2023-06-14T04:11:24;97850.06;;;12.60;96.34
65754;BME280;69207;47.502;18.940;2023-06-14T04:12:28;97858.81;;;12.57;96.54
65754;BME280;69207;47.502;18.940;2023-06-14T04:13:31;97852.59;;;12.56;96.76
65754;BME280;69207;47.502;18.940;2023-06-14T04:14:38;97849.84;;;12.56;96.92
65754;BME280;69207;47.502;18.940;2023-06-14T04:15:41;97852.09;;;12.60;96.73
65754;BME280;69207;47.502;18.940;2023-06-14T04:16:49;97857.59;;;12.60;96.34
65754;BME280;69207;47.502;18.940;2023-06-14T04:17:52;97863.00;;;12.58;96.36
65754;BME280;69207;47.502;18.940;2023-06-14T04:18:55;97855.34;;;12.56;96.78
65754;BME280;69207;47.502;18.940;2023-06-14T04:19:59;97857.72;;;12.62;96.76
65754;BME280;69207;47.502;18.940;2023-06-14T04:21:02;97859.16;;;12.63;96.48
65754;BME280;69207;47.502;18.940;2023-06-14T04:22:05;97867.53;;;12.65;96.47
65754;BME280;69207;47.502;18.940;2023-06-14T04:23:15;97866.72;;;12.62;96.84
65754;BME280;69207;47.502;18.940;2023-06-14T04:24:20;97867.44;;;12.63;97.11
65754;BME280;69207;47.502;18.940;2023-06-14T04:25:23;97862.03;;;12.65;97.12
65754;BME280;69207;47.502;18.940;2023-06-14T04:26:28;97859.25;;;12.65;97.14
65754;BME280;69207;47.502;18.940;2023-06-14T04:27:32;97861.66;;;12.71;96.98
65754;BME280;69207;47.502;18.940;2023-06-14T04:28:38;97860.34;;;12.72;96.83
65754;BME280;69207;47.502;18.940;2023-06-14T04:29:43;97866.06;;;12.76;96.88
65754;BME280;69207;47.502;18.940;2023-06-14T04:30:47;97862.13;;;12.79;96.70
65754;BME280;69207;47.502;18.940;2023-06-14T04:31:51;97862.13;;;12.79;96.69
65754;BME280;69207;47.502;18.940;2023-06-14T04:32:54;97860.19;;;12.81;96.87
65754;BME280;69207;47.502;18.940;2023-06-14T04:33:58;97867.87;;;12.83;96.60
65754;BME280;69207;47.502;18.940;2023-06-14T04:35:01;97868.78;;;12.87;96.70
65754;BME280;69207;47.502;18.940;2023-06-14T04:36:04;97860.13;;;12.93;96.37
65754;BME280;69207;47.502;18.940;2023-06-14T04:37:07;97868.16;;;13.01;95.83
65754;BME280;69207;47.502;18.940;2023-06-14T04:38:10;97863.22;;;12.99;95.90
65754;BME280;69207;47.502;18.940;2023-06-14T04:39:13;97869.44;;;13.11;94.59
65754;BME280;69207;47.502;18.940;2023-06-14T04:40:15;97868.13;;;13.12;94.01
65754;BME280;69207;47.502;18.940;2023-06-14T04:41:18;97870.03;;;13.22;93.58
65754;BME280;69207;47.502;18.940;2023-06-14T04:42:25;97874.66;;;13.19;93.31
65754;BME280;69207;47.502;18.940;2023-06-14T04:43:32;97868.34;;;13.16;93.72
65754;BME280;69207;47.502;18.940;2023-06-14T04:44:41;97872.53;;;13.17;93.93
65754;BME280;69207;47.502;18.940;2023-06-14T04:45:46;97875.37;;;13.19;93.23
65754;BME280;69207;47.502;18.940;2023-06-14T04:46:49;97880.31;;;13.21;93.26
65754;BME280;69207;47.502;18.940;2023-06-14T04:47:51;97872.16;;;13.23;93.37
65754;BME280;69207;47.502;18.940;2023-06-14T04:49:00;97879.22;;;13.26;93.54
65754;BME280;69207;47.502;18.940;2023-06-14T04:50:04;97877.00;;;13.36;93.32
65754;BME280;69207;47.502;18.940;2023-06-14T04:51:08;97881.53;;;13.43;92.97
65754;BME280;69207;47.502;18.940;2023-06-14T04:52:11;97879.59;;;13.46;92.18
65754;BME280;69207;47.502;18.940;2023-06-14T04:53:15;97876.22;;;13.47;92.42
65754;BME280;69207;47.502;18.940;2023-06-14T04:54:19;97874.09;;;13.46;92.74
65754;BME280;69207;47.502;18.940;2023-06-14T04:55:22;97879.31;;;13.54;92.50
65754;BME280;69207;47.502;18.940;2023-06-14T04:56:25;97881.50;;;13.55;92.14
65754;BME280;69207;47.502;18.940;2023-06-14T04:57:28;97870.53;;;13.57;91.86
65754;BME280;69207;47.502;18.940;2023-06-14T04:58:31;97875.66;;;13.63;91.67
65754;BME280;69207;47.502;18.940;2023-06-14T04:59:34;97877.41;;;13.70;91.32
65754;BME280;69207;47.502;18.940;2023-06-14T05:00:38;97877.53;;;13.72;90.86
65754;BME280;69207;47.502;18.940;2023-06-14T05:01:40;97879.69;;;13.73;90.90
65754;BME280;69207;47.502;18.940;2023-06-14T05:02:43;97888.19;;;13.78;90.80
65754;BME280;69207;47.502;18.940;2023-06-14T05:03:47;97884.09;;;13.79;90.98
65754;BME280;69207;47.502;18.940;2023-06-14T05:04:52;97886.97;;;13.81;91.08
65754;BME280;69207;47.502;18.940;2023-06-14T05:05:55;97886.47;;;13.84;91.16
65754;BME280;69207;47.502;18.940;2023-06-14T05:06:58;97886.69;;;13.88;91.09
65754;BME280;69207;47.502;18.940;2023-06-14T05:08:01;97884.09;;;13.92;90.78
65754;BME280;69207;47.502;18.940;2023-06-14T05:09:03;97880.00;;;13.93;90.65
65754;BME280;69207;47.502;18.940;2023-06-14T05:10:07;97877.59;;;13.99;90.61
65754;BME280;69207;47.502;18.940;2023-06-14T05:11:10;97879.22;;;14.05;90.02
65754;BME280;69207;47.502;18.940;2023-06-14T05:12:12;97883.63;;;14.10;90.03
65754;BME280;69207;47.502;18.940;2023-06-14T05:13:15;97875.13;;;14.19;89.49
65754;BME280;69207;47.502;18.940;2023-06-14T05:14:18;97880.66;;;14.19;89.53
65754;BME280;69207;47.502;18.940;2023-06-14T05:15:21;97882.81;;;14.21;89.27
65754;BME280;69207;47.502;18.940;2023-06-14T05:16:27;97878.12;;;14.23;89.20
65754;BME280;69207;47.502;18.940;2023-06-14T05:17:31;97885.38;;;14.31;88.41
65754;BME280;69207;47.502;18.940;2023-06-14T05:18:34;97888.56;;;14.39;88.28
65754;BME280;69207;47.502;18.940;2023-06-14T05:19:37;97896.31;;;14.42;88.14
65754;BME280;69207;47.502;18.940;2023-06-14T05:20:41;97888.84;;;14.45;88.10
65754;BME280;69207;47.502;18.940;2023-06-14T05:21:44;97885.47;;;14.46;87.95
65754;BME280;69207;47.502;18.940;2023-06-14T05:22:47;97882.22;;;14.50;87.99
65754;BME280;69207;47.502;18.940;2023-06-14T05:23:50;97880.28;;;14.52;88.33
65754;BME280;69207;47.502;18.940;2023-06-14T05:24:53;97880.38;;;14.55;88.29
65754;BME280;69207;47.502;18.940;2023-06-14T05:25:56;97886.00;;;14.57;88.27
65754;BME280;69207;47.502;18.940;2023-06-14T05:26:59;97881.91;;;14.58;88.28
65754;BME280;69207;47.502;18.940;2023-06-14T05:28:02;97880.56;;;14.72;87.51
65754;BME280;69207;47.502;18.940;2023-06-14T05:29:05;97887.31;;;14.69;87.45
65754;BME280;69207;47.502;18.940;2023-06-14T05:30:08;97893.38;;;14.66;87.70
65754;BME280;69207;47.502;18.940;2023-06-14T05:31:11;97894.81;;;14.67;87.73
65754;BME280;69207;47.502;18.940;2023-06-14T05:32:14;97894.19;;;14.68;87.72
65754;BME280;69207;47.502;18.940;2023-06-14T05:33:17;97888.66;;;14.68;87.67
65754;BME280;69207;47.502;18.940;2023-06-14T05:34:20;97889.37;;;14.69;87.42
65754;BME280;69207;47.502;18.940;2023-06-14T05:35:23;97894.19;;;14.68;87.30
65754;BME280;69207;47.502;18.940;2023-06-14T05:36:26;97894.28;;;14.70;87.67
65754;BME280;69207;47.502;18.940;2023-06-14T05:37:30;97892.22;;;14.71;87.89